Saint Nazianz, Wisconsin
Current Conditions -  °F | °C
As of 9:56 AM on Sunday 25 Jan 2015 (Local Time) from KMTW Reporting Station
Overcast Overcast  
Wind Chill: 10°   Ceiling: 2700
Heat Index: 23°   Visibility: 10mi
Dew Point: 14°   Wind: 15mph
Humidity: 68%   Direction: 70°ENE
Pressure: 29.99"   Gusts: 23mph
Location:  44.01°N, 87.92°W
Report Text: KMTW 251556Z AUTO 07013G20KT 10SM OVC027 M05/M10 A2999 RMK AO2 SLP179 T10501100 FZRANO
Loading
Personal Weather Stations






























Interactive Weather Map New forecast layout! Learn more

10-Day Weather Forecast

Advertisements
Track Severe Weather on mobile